sensor_id;sensor_type;location;lat;lon;timestamp;P1;durP1;ratioP1;P2;durP2;ratioP2
12171;SDS011;6149;52.418;13.668;2024-01-16T00:00:08;1.67;;;1.23;;
12171;SDS011;6149;52.418;13.668;2024-01-16T00:02:37;2.17;;;1.27;;
12171;SDS011;6149;52.418;13.668;2024-01-16T00:05:05;2.27;;;1.30;;
12171;SDS011;6149;52.418;13.668;2024-01-16T00:07:32;2.37;;;1.23;;
12171;SDS011;6149;52.418;13.668;2024-01-16T00:10:00;2.87;;;1.43;;
12171;SDS011;6149;52.418;13.668;2024-01-16T00:12:27;3.23;;;1.70;;
12171;SDS011;6149;52.418;13.668;2024-01-16T00:14:53;2.80;;;1.70;;
12171;SDS011;6149;52.418;13.668;2024-01-16T00:17:20;2.57;;;1.50;;
12171;SDS011;6149;52.418;13.668;2024-01-16T00:19:48;3.07;;;1.60;;
12171;SDS011;6149;52.418;13.668;2024-01-16T00:22:14;5.67;;;1.47;;
12171;SDS011;6149;52.418;13.668;2024-01-16T00:24:41;4.60;;;1.20;;
12171;SDS011;6149;52.418;13.668;2024-01-16T00:27:07;2.37;;;1.70;;
12171;SDS011;6149;52.418;13.668;2024-01-16T00:29:34;3.63;;;1.70;;
12171;SDS011;6149;52.418;13.668;2024-01-16T00:32:01;3.20;;;1.57;;
12171;SDS011;6149;52.418;13.668;2024-01-16T00:34:27;4.17;;;2.17;;
12171;SDS011;6149;52.418;13.668;2024-01-16T00:36:55;9.03;;;2.40;;
12171;SDS011;6149;52.418;13.668;2024-01-16T00:39:21;6.87;;;2.80;;
12171;SDS011;6149;52.418;13.668;2024-01-16T00:41:48;7.83;;;2.80;;
12171;SDS011;6149;52.418;13.668;2024-01-16T00:44:15;7.50;;;2.90;;
12171;SDS011;6149;52.418;13.668;2024-01-16T00:46:41;6.50;;;3.23;;
12171;SDS011;6149;52.418;13.668;2024-01-16T00:49:08;5.53;;;2.50;;
12171;SDS011;6149;52.418;13.668;2024-01-16T00:51:34;4.87;;;2.10;;
12171;SDS011;6149;52.418;13.668;2024-01-16T00:54:02;3.57;;;1.80;;
12171;SDS011;6149;52.418;13.668;2024-01-16T00:56:31;6.33;;;2.27;;
12171;SDS011;6149;52.418;13.668;2024-01-16T00:58:59;3.40;;;1.90;;
12171;SDS011;6149;52.418;13.668;2024-01-16T01:01:26;4.40;;;1.73;;
12171;SDS011;6149;52.418;13.668;2024-01-16T01:03:52;2.97;;;1.70;;
12171;SDS011;6149;52.418;13.668;2024-01-16T01:06:20;3.83;;;1.60;;
12171;SDS011;6149;52.418;13.668;2024-01-16T01:08:47;4.80;;;2.10;;
12171;SDS011;6149;52.418;13.668;2024-01-16T01:11:15;6.13;;;2.17;;
12171;SDS011;6149;52.418;13.668;2024-01-16T01:13:41;4.50;;;2.17;;
12171;SDS011;6149;52.418;13.668;2024-01-16T01:16:08;3.27;;;1.70;;
12171;SDS011;6149;52.418;13.668;2024-01-16T01:18:34;5.07;;;1.50;;
12171;SDS011;6149;52.418;13.668;2024-01-16T01:21:01;3.43;;;1.33;;
12171;SDS011;6149;52.418;13.668;2024-01-16T01:23:28;2.67;;;1.30;;
12171;SDS011;6149;52.418;13.668;2024-01-16T01:25:54;2.77;;;1.20;;
12171;SDS011;6149;52.418;13.668;2024-01-16T01:28:22;1.27;;;1.00;;
12171;SDS011;6149;52.418;13.668;2024-01-16T01:30:49;3.87;;;1.47;;
12171;SDS011;6149;52.418;13.668;2024-01-16T01:33:15;2.60;;;1.30;;
12171;SDS011;6149;52.418;13.668;2024-01-16T01:35:42;4.07;;;1.20;;
12171;SDS011;6149;52.418;13.668;2024-01-16T01:38:09;2.80;;;1.07;;
12171;SDS011;6149;52.418;13.668;2024-01-16T01:40:35;3.03;;;1.27;;
12171;SDS011;6149;52.418;13.668;2024-01-16T01:43:16;3.50;;;1.20;;
12171;SDS011;6149;52.418;13.668;2024-01-16T01:45:44;2.30;;;1.10;;
12171;SDS011;6149;52.418;13.668;2024-01-16T01:48:14;2.97;;;1.07;;
12171;SDS011;6149;52.418;13.668;2024-01-16T01:50:41;2.87;;;1.03;;
12171;SDS011;6149;52.418;13.668;2024-01-16T01:53:07;2.73;;;1.30;;
12171;SDS011;6149;52.418;13.668;2024-01-16T01:55:34;3.80;;;1.30;;
12171;SDS011;6149;52.418;13.668;2024-01-16T01:58:01;3.23;;;1.07;;
12171;SDS011;6149;52.418;13.668;2024-01-16T02:00:29;2.97;;;1.10;;
12171;SDS011;6149;52.418;13.668;2024-01-16T02:02:57;3.53;;;1.30;;
12171;SDS011;6149;52.418;13.668;2024-01-16T02:05:25;3.27;;;1.07;;
12171;SDS011;6149;52.418;13.668;2024-01-16T02:07:56;2.00;;;1.10;;
12171;SDS011;6149;52.418;13.668;2024-01-16T02:10:22;1.87;;;1.00;;
12171;SDS011;6149;52.418;13.668;2024-01-16T02:12:49;3.43;;;1.10;;
12171;SDS011;6149;52.418;13.668;2024-01-16T02:15:16;1.60;;;1.00;;
12171;SDS011;6149;52.418;13.668;2024-01-16T02:17:42;3.30;;;0.90;;
12171;SDS011;6149;52.418;13.668;2024-01-16T02:20:11;3.43;;;1.10;;
12171;SDS011;6149;52.418;13.668;2024-01-16T02:22:37;3.63;;;1.13;;
12171;SDS011;6149;52.418;13.668;2024-01-16T02:25:07;3.23;;;1.17;;
12171;SDS011;6149;52.418;13.668;2024-01-16T02:27:34;4.80;;;1.40;;
12171;SDS011;6149;52.418;13.668;2024-01-16T02:30:00;4.20;;;1.20;;
12171;SDS011;6149;52.418;13.668;2024-01-16T02:32:27;2.47;;;0.83;;
12171;SDS011;6149;52.418;13.668;2024-01-16T02:34:53;2.73;;;0.90;;
12171;SDS011;6149;52.418;13.668;2024-01-16T02:37:20;1.90;;;0.97;;
12171;SDS011;6149;52.418;13.668;2024-01-16T02:39:47;1.70;;;0.90;;
12171;SDS011;6149;52.418;13.668;2024-01-16T02:42:15;2.83;;;1.20;;
12171;SDS011;6149;52.418;13.668;2024-01-16T02:44:44;2.37;;;1.10;;
12171;SDS011;6149;52.418;13.668;2024-01-16T02:47:10;1.50;;;1.10;;
12171;SDS011;6149;52.418;13.668;2024-01-16T02:49:37;2.93;;;1.00;;
12171;SDS011;6149;52.418;13.668;2024-01-16T02:52:05;2.60;;;1.03;;
12171;SDS011;6149;52.418;13.668;2024-01-16T02:54:31;3.27;;;0.87;;
12171;SDS011;6149;52.418;13.668;2024-01-16T02:56:58;2.07;;;0.90;;
12171;SDS011;6149;52.418;13.668;2024-01-16T02:59:26;2.30;;;1.10;;
12171;SDS011;6149;52.418;13.668;2024-01-16T03:01:55;1.43;;;1.10;;
12171;SDS011;6149;52.418;13.668;2024-01-16T03:04:21;4.17;;;1.10;;
12171;SDS011;6149;52.418;13.668;2024-01-16T03:06:48;2.87;;;1.47;;
12171;SDS011;6149;52.418;13.668;2024-01-16T03:09:15;3.43;;;1.43;;
12171;SDS011;6149;52.418;13.668;2024-01-16T03:11:42;1.60;;;0.83;;
12171;SDS011;6149;52.418;13.668;2024-01-16T03:14:08;1.53;;;0.90;;
12171;SDS011;6149;52.418;13.668;2024-01-16T03:16:36;2.03;;;1.10;;
12171;SDS011;6149;52.418;13.668;2024-01-16T03:19:02;1.83;;;1.10;;
12171;SDS011;6149;52.418;13.668;2024-01-16T03:21:29;1.70;;;1.23;;
12171;SDS011;6149;52.418;13.668;2024-01-16T03:23:56;2.70;;;1.23;;
12171;SDS011;6149;52.418;13.668;2024-01-16T03:26:22;2.27;;;1.40;;
12171;SDS011;6149;52.418;13.668;2024-01-16T03:28:49;2.60;;;1.20;;
12171;SDS011;6149;52.418;13.668;2024-01-16T03:31:15;3.30;;;1.30;;
12171;SDS011;6149;52.418;13.668;2024-01-16T03:33:44;2.73;;;1.40;;
12171;SDS011;6149;52.418;13.668;2024-01-16T03:36:11;3.67;;;1.30;;
12171;SDS011;6149;52.418;13.668;2024-01-16T03:38:38;2.57;;;1.30;;
12171;SDS011;6149;52.418;13.668;2024-01-16T03:41:05;2.13;;;1.10;;
12171;SDS011;6149;52.418;13.668;2024-01-16T03:43:33;2.10;;;1.37;;
12171;SDS011;6149;52.418;13.668;2024-01-16T03:46:00;4.00;;;1.60;;
12171;SDS011;6149;52.418;13.668;2024-01-16T03:48:26;2.40;;;1.27;;
12171;SDS011;6149;52.418;13.668;2024-01-16T03:50:55;4.07;;;1.60;;
12171;SDS011;6149;52.418;13.668;2024-01-16T03:53:22;2.40;;;1.50;;
12171;SDS011;6149;52.418;13.668;2024-01-16T03:55:49;4.60;;;1.90;;
12171;SDS011;6149;52.418;13.668;2024-01-16T03:58:16;2.93;;;1.50;;
12171;SDS011;6149;52.418;13.668;2024-01-16T04:00:42;1.77;;;1.43;;
12171;SDS011;6149;52.418;13.668;2024-01-16T04:03:09;3.57;;;1.67;;
12171;SDS011;6149;52.418;13.668;2024-01-16T04:05:36;5.10;;;1.83;;
12171;SDS011;6149;52.418;13.668;2024-01-16T04:08:04;4.83;;;1.90;;
12171;SDS011;6149;52.418;13.668;2024-01-16T04:10:31;4.73;;;2.03;;
12171;SDS011;6149;52.418;13.668;2024-01-16T04:12:59;6.03;;;1.70;;
12171;SDS011;6149;52.418;13.668;2024-01-16T04:15:26;3.63;;;1.67;;
12171;SDS011;6149;52.418;13.668;2024-01-16T04:17:53;3.50;;;2.03;;
12171;SDS011;6149;52.418;13.668;2024-01-16T04:20:20;8.00;;;2.13;;
12171;SDS011;6149;52.418;13.668;2024-01-16T04:22:47;4.33;;;2.43;;
12171;SDS011;6149;52.418;13.668;2024-01-16T04:25:15;3.00;;;2.23;;
12171;SDS011;6149;52.418;13.668;2024-01-16T04:27:41;4.67;;;2.23;;
12171;SDS011;6149;52.418;13.668;2024-01-16T04:30:08;5.00;;;2.17;;
12171;SDS011;6149;52.418;13.668;2024-01-16T04:32:35;4.53;;;2.23;;
12171;SDS011;6149;52.418;13.668;2024-01-16T04:35:02;3.47;;;2.33;;
12171;SDS011;6149;52.418;13.668;2024-01-16T04:37:29;5.47;;;2.53;;
12171;SDS011;6149;52.418;13.668;2024-01-16T04:39:56;3.13;;;1.90;;
12171;SDS011;6149;52.418;13.668;2024-01-16T04:42:25;3.23;;;2.27;;
12171;SDS011;6149;52.418;13.668;2024-01-16T04:44:52;3.93;;;2.43;;
12171;SDS011;6149;52.418;13.668;2024-01-16T04:47:19;5.53;;;2.73;;
12171;SDS011;6149;52.418;13.668;2024-01-16T04:49:45;4.23;;;2.70;;
12171;SDS011;6149;52.418;13.668;2024-01-16T04:52:12;8.13;;;2.70;;
12171;SDS011;6149;52.418;13.668;2024-01-16T04:54:39;4.00;;;2.30;;
12171;SDS011;6149;52.418;13.668;2024-01-16T04:57:05;4.93;;;2.70;;
12171;SDS011;6149;52.418;13.668;2024-01-16T04:59:33;6.83;;;2.80;;
12171;SDS011;6149;52.418;13.668;2024-01-16T05:02:00;4.20;;;2.50;;
12171;SDS011;6149;52.418;13.668;2024-01-16T05:04:26;4.97;;;2.97;;
12171;SDS011;6149;52.418;13.668;2024-01-16T05:06:53;4.20;;;3.23;;
12171;SDS011;6149;52.418;13.668;2024-01-16T05:09:20;4.73;;;2.80;;
12171;SDS011;6149;52.418;13.668;2024-01-16T05:11:46;4.80;;;3.13;;
12171;SDS011;6149;52.418;13.668;2024-01-16T05:14:16;4.27;;;2.93;;
12171;SDS011;6149;52.418;13.668;2024-01-16T05:16:44;4.27;;;3.17;;
12171;SDS011;6149;52.418;13.668;2024-01-16T05:19:11;10.03;;;3.57;;
12171;SDS011;6149;52.418;13.668;2024-01-16T05:21:37;8.77;;;4.87;;
12171;SDS011;6149;52.418;13.668;2024-01-16T05:24:07;8.10;;;4.43;;
12171;SDS011;6149;52.418;13.668;2024-01-16T05:26:34;9.23;;;4.73;;
12171;SDS011;6149;52.418;13.668;2024-01-16T05:29:01;6.10;;;4.20;;
12171;SDS011;6149;52.418;13.668;2024-01-16T05:31:27;6.53;;;4.50;;
12171;SDS011;6149;52.418;13.668;2024-01-16T05:33:55;10.53;;;5.23;;
12171;SDS011;6149;52.418;13.668;2024-01-16T05:36:23;9.47;;;5.43;;
12171;SDS011;6149;52.418;13.668;2024-01-16T05:38:49;8.43;;;5.50;;
12171;SDS011;6149;52.418;13.668;2024-01-16T05:41:18;11.07;;;5.43;;
12171;SDS011;6149;52.418;13.668;2024-01-16T05:43:44;7.73;;;5.20;;
12171;SDS011;6149;52.418;13.668;2024-01-16T05:46:12;11.40;;;5.77;;
12171;SDS011;6149;52.418;13.668;2024-01-16T05:48:39;11.60;;;5.67;;
12171;SDS011;6149;52.418;13.668;2024-01-16T05:51:06;9.63;;;5.67;;
12171;SDS011;6149;52.418;13.668;2024-01-16T05:53:33;8.07;;;5.60;;
12171;SDS011;6149;52.418;13.668;2024-01-16T05:56:00;6.93;;;5.33;;
12171;SDS011;6149;52.418;13.668;2024-01-16T05:58:26;8.70;;;5.63;;
12171;SDS011;6149;52.418;13.668;2024-01-16T06:00:53;11.50;;;6.80;;
12171;SDS011;6149;52.418;13.668;2024-01-16T06:03:20;7.93;;;5.60;;
12171;SDS011;6149;52.418;13.668;2024-01-16T06:05:47;10.07;;;6.90;;
12171;SDS011;6149;52.418;13.668;2024-01-16T06:08:15;10.57;;;5.97;;
12171;SDS011;6149;52.418;13.668;2024-01-16T06:10:41;10.23;;;6.30;;
12171;SDS011;6149;52.418;13.668;2024-01-16T06:13:09;9.20;;;5.50;;
12171;SDS011;6149;52.418;13.668;2024-01-16T06:15:35;9.37;;;5.67;;
12171;SDS011;6149;52.418;13.668;2024-01-16T06:18:02;9.20;;;5.73;;
12171;SDS011;6149;52.418;13.668;2024-01-16T06:20:29;8.77;;;6.00;;
12171;SDS011;6149;52.418;13.668;2024-01-16T06:22:57;8.00;;;5.30;;
12171;SDS011;6149;52.418;13.668;2024-01-16T06:25:25;9.43;;;5.70;;
12171;SDS011;6149;52.418;13.668;2024-01-16T06:27:51;7.90;;;5.27;;
12171;SDS011;6149;52.418;13.668;2024-01-16T06:30:18;8.90;;;5.93;;
12171;SDS011;6149;52.418;13.668;2024-01-16T06:32:44;7.43;;;5.30;;
12171;SDS011;6149;52.418;13.668;2024-01-16T06:35:12;8.37;;;5.60;;
12171;SDS011;6149;52.418;13.668;2024-01-16T06:37:39;9.50;;;5.63;;
12171;SDS011;6149;52.418;13.668;2024-01-16T06:40:06;12.20;;;6.00;;
12171;SDS011;6149;52.418;13.668;2024-01-16T06:42:35;10.37;;;5.90;;
12171;SDS011;6149;52.418;13.668;2024-01-16T06:45:02;10.37;;;5.33;;
12171;SDS011;6149;52.418;13.668;2024-01-16T06:47:30;10.57;;;6.03;;
12171;SDS011;6149;52.418;13.668;2024-01-16T06:49:56;12.60;;;5.83;;
12171;SDS011;6149;52.418;13.668;2024-01-16T06:52:23;11.37;;;7.03;;
12171;SDS011;6149;52.418;13.668;2024-01-16T06:54:50;14.00;;;7.00;;
12171;SDS011;6149;52.418;13.668;2024-01-16T06:57:16;11.77;;;7.00;;
12171;SDS011;6149;52.418;13.668;2024-01-16T06:59:46;16.77;;;8.97;;
12171;SDS011;6149;52.418;13.668;2024-01-16T07:02:13;18.83;;;8.50;;
12171;SDS011;6149;52.418;13.668;2024-01-16T07:04:39;16.57;;;8.97;;
12171;SDS011;6149;52.418;13.668;2024-01-16T07:07:06;13.83;;;7.80;;
12171;SDS011;6149;52.418;13.668;2024-01-16T07:09:32;12.03;;;6.83;;
12171;SDS011;6149;52.418;13.668;2024-01-16T07:11:59;9.13;;;6.13;;
12171;SDS011;6149;52.418;13.668;2024-01-16T07:14:26;9.53;;;5.90;;
12171;SDS011;6149;52.418;13.668;2024-01-16T07:16:54;11.07;;;5.60;;
12171;SDS011;6149;52.418;13.668;2024-01-16T07:19:21;9.97;;;6.50;;
12171;SDS011;6149;52.418;13.668;2024-01-16T07:21:47;10.50;;;6.20;;
12171;SDS011;6149;52.418;13.668;2024-01-16T07:24:14;11.87;;;6.63;;
12171;SDS011;6149;52.418;13.668;2024-01-16T07:26:41;13.17;;;6.23;;
12171;SDS011;6149;52.418;13.668;2024-01-16T07:29:07;15.47;;;8.27;;
12171;SDS011;6149;52.418;13.668;2024-01-16T07:31:34;13.77;;;8.47;;
12171;SDS011;6149;52.418;13.668;2024-01-16T07:34:02;12.80;;;7.87;;
12171;SDS011;6149;52.418;13.668;2024-01-16T07:36:29;11.67;;;6.63;;
12171;SDS011;6149;52.418;13.668;2024-01-16T07:38:56;13.83;;;7.37;;
12171;SDS011;6149;52.418;13.668;2024-01-16T07:41:22;10.10;;;6.93;;
12171;SDS011;6149;52.418;13.668;2024-01-16T07:43:49;11.73;;;6.87;;
12171;SDS011;6149;52.418;13.668;2024-01-16T07:46:16;9.43;;;6.23;;
12171;SDS011;6149;52.418;13.668;2024-01-16T07:48:42;10.43;;;7.03;;
12171;SDS011;6149;52.418;13.668;2024-01-16T07:51:10;11.93;;;6.47;;
12171;SDS011;6149;52.418;13.668;2024-01-16T07:53:37;16.13;;;7.37;;
12171;SDS011;6149;52.418;13.668;2024-01-16T07:56:04;10.23;;;6.90;;
12171;SDS011;6149;52.418;13.668;2024-01-16T07:58:30;9.90;;;6.20;;
12171;SDS011;6149;52.418;13.668;2024-01-16T08:00:57;10.07;;;6.80;;
12171;SDS011;6149;52.418;13.668;2024-01-16T08:03:24;13.20;;;7.33;;
12171;SDS011;6149;52.418;13.668;2024-01-16T08:05:50;11.87;;;7.33;;
12171;SDS011;6149;52.418;13.668;2024-01-16T08:08:18;10.10;;;7.10;;
12171;SDS011;6149;52.418;13.668;2024-01-16T08:10:45;13.23;;;8.50;;
12171;SDS011;6149;52.418;13.668;2024-01-16T08:13:12;13.33;;;8.03;;
12171;SDS011;6149;52.418;13.668;2024-01-16T08:15:48;14.73;;;8.13;;
12171;SDS011;6149;52.418;13.668;2024-01-16T08:18:15;13.03;;;8.57;;
12171;SDS011;6149;52.418;13.668;2024-01-16T08:20:42;13.33;;;8.53;;
12171;SDS011;6149;52.418;13.668;2024-01-16T08:23:09;14.60;;;8.80;;
12171;SDS011;6149;52.418;13.668;2024-01-16T08:25:37;14.03;;;8.23;;
12171;SDS011;6149;52.418;13.668;2024-01-16T08:28:03;11.77;;;8.07;;
12171;SDS011;6149;52.418;13.668;2024-01-16T08:30:30;12.93;;;8.33;;
12171;SDS011;6149;52.418;13.668;2024-01-16T08:32:57;12.17;;;7.73;;
12171;SDS011;6149;52.418;13.668;2024-01-16T08:35:23;13.57;;;7.47;;
12171;SDS011;6149;52.418;13.668;2024-01-16T08:37:50;14.67;;;8.57;;
12171;SDS011;6149;52.418;13.668;2024-01-16T08:40:16;13.37;;;8.27;;
12171;SDS011;6149;52.418;13.668;2024-01-16T08:42:44;16.00;;;8.23;;
12171;SDS011;6149;52.418;13.668;2024-01-16T08:45:16;14.77;;;8.57;;
12171;SDS011;6149;52.418;13.668;2024-01-16T08:47:43;15.13;;;8.67;;
12171;SDS011;6149;52.418;13.668;2024-01-16T08:50:09;16.10;;;8.80;;
12171;SDS011;6149;52.418;13.668;2024-01-16T08:52:36;16.30;;;8.87;;
12171;SDS011;6149;52.418;13.668;2024-01-16T08:55:02;13.43;;;8.07;;
12171;SDS011;6149;52.418;13.668;2024-01-16T08:57:30;14.53;;;8.17;;
12171;SDS011;6149;52.418;13.668;2024-01-16T08:59:58;15.47;;;8.63;;
12171;SDS011;6149;52.418;13.668;2024-01-16T09:02:24;14.70;;;8.00;;
12171;SDS011;6149;52.418;13.668;2024-01-16T09:04:53;12.47;;;8.33;;
12171;SDS011;6149;52.418;13.668;2024-01-16T09:07:20;10.53;;;7.63;;
12171;SDS011;6149;52.418;13.668;2024-01-16T09:09:47;14.03;;;8.10;;
12171;SDS011;6149;52.418;13.668;2024-01-16T09:12:14;15.70;;;8.23;;
12171;SDS011;6149;52.418;13.668;2024-01-16T09:14:41;13.53;;;8.20;;
12171;SDS011;6149;52.418;13.668;2024-01-16T09:17:09;17.00;;;8.97;;
12171;SDS011;6149;52.418;13.668;2024-01-16T09:19:36;15.20;;;9.33;;
12171;SDS011;6149;52.418;13.668;2024-01-16T09:22:02;16.07;;;9.10;;
12171;SDS011;6149;52.418;13.668;2024-01-16T09:24:29;11.57;;;7.70;;
12171;SDS011;6149;52.418;13.668;2024-01-16T09:26:56;15.93;;;8.57;;
12171;SDS011;6149;52.418;13.668;2024-01-16T09:29:23;15.83;;;9.13;;
12171;SDS011;6149;52.418;13.668;2024-01-16T09:31:50;13.13;;;8.00;;
12171;SDS011;6149;52.418;13.668;2024-01-16T09:34:18;13.43;;;8.37;;
12171;SDS011;6149;52.418;13.668;2024-01-16T09:36:45;16.80;;;9.30;;
12171;SDS011;6149;52.418;13.668;2024-01-16T09:39:11;16.57;;;9.80;;
12171;SDS011;6149;52.418;13.668;2024-01-16T09:41:39;18.13;;;9.00;;
12171;SDS011;6149;52.418;13.668;2024-01-16T09:44:06;17.93;;;9.30;;
12171;SDS011;6149;52.418;13.668;2024-01-16T09:46:33;14.13;;;9.37;;
12171;SDS011;6149;52.418;13.668;2024-01-16T09:49:03;11.40;;;8.23;;
12171;SDS011;6149;52.418;13.668;2024-01-16T09:51:31;12.90;;;9.03;;
12171;SDS011;6149;52.418;13.668;2024-01-16T09:53:58;12.23;;;8.67;;
12171;SDS011;6149;52.418;13.668;2024-01-16T09:56:27;14.57;;;8.57;;
12171;SDS011;6149;52.418;13.668;2024-01-16T09:58:57;13.83;;;8.83;;
12171;SDS011;6149;52.418;13.668;2024-01-16T10:01:29;13.80;;;8.40;;
12171;SDS011;6149;52.418;13.668;2024-01-16T10:03:58;11.77;;;8.30;;
12171;SDS011;6149;52.418;13.668;2024-01-16T10:06:25;15.87;;;8.40;;
12171;SDS011;6149;52.418;13.668;2024-01-16T10:08:55;11.07;;;7.77;;
12171;SDS011;6149;52.418;13.668;2024-01-16T10:11:21;14.33;;;8.27;;
12171;SDS011;6149;52.418;13.668;2024-01-16T10:13:48;16.00;;;9.17;;
12171;SDS011;6149;52.418;13.668;2024-01-16T10:16:15;12.40;;;8.53;;
12171;SDS011;6149;52.418;13.668;2024-01-16T10:18:41;14.40;;;9.17;;
12171;SDS011;6149;52.418;13.668;2024-01-16T10:21:19;15.43;;;8.27;;
12171;SDS011;6149;52.418;13.668;2024-01-16T10:23:48;12.53;;;8.43;;
12171;SDS011;6149;52.418;13.668;2024-01-16T10:26:18;14.57;;;9.00;;
12171;SDS011;6149;52.418;13.668;2024-01-16T10:28:47;13.87;;;8.63;;
12171;SDS011;6149;52.418;13.668;2024-01-16T10:31:13;16.70;;;9.77;;
12171;SDS011;6149;52.418;13.668;2024-01-16T10:33:40;14.10;;;9.17;;
12171;SDS011;6149;52.418;13.668;2024-01-16T10:36:07;14.83;;;8.77;;
12171;SDS011;6149;52.418;13.668;2024-01-16T10:38:36;12.67;;;8.67;;
12171;SDS011;6149;52.418;13.668;2024-01-16T10:41:04;14.47;;;8.37;;
12171;SDS011;6149;52.418;13.668;2024-01-16T10:43:34;15.30;;;8.80;;
12171;SDS011;6149;52.418;13.668;2024-01-16T10:46:07;11.10;;;8.33;;
12171;SDS011;6149;52.418;13.668;2024-01-16T10:48:36;13.33;;;8.50;;
12171;SDS011;6149;52.418;13.668;2024-01-16T10:51:04;15.90;;;8.80;;
12171;SDS011;6149;52.418;13.668;2024-01-16T10:53:33;14.73;;;8.50;;
12171;SDS011;6149;52.418;13.668;2024-01-16T10:56:01;14.73;;;8.00;;
12171;SDS011;6149;52.418;13.668;2024-01-16T10:58:29;15.03;;;7.67;;
12171;SDS011;6149;52.418;13.668;2024-01-16T11:01:01;12.97;;;7.77;;
12171;SDS011;6149;52.418;13.668;2024-01-16T11:03:32;11.77;;;7.70;;
12171;SDS011;6149;52.418;13.668;2024-01-16T11:06:05;15.33;;;7.77;;
12171;SDS011;6149;52.418;13.668;2024-01-16T11:08:34;11.03;;;6.33;;
12171;SDS011;6149;52.418;13.668;2024-01-16T11:11:02;10.33;;;6.93;;
12171;SDS011;6149;52.418;13.668;2024-01-16T11:13:31;9.23;;;6.23;;
12171;SDS011;6149;52.418;13.668;2024-01-16T11:16:01;7.93;;;5.73;;
12171;SDS011;6149;52.418;13.668;2024-01-16T11:18:30;9.57;;;5.00;;
12171;SDS011;6149;52.418;13.668;2024-01-16T11:20:57;7.53;;;4.87;;
12171;SDS011;6149;52.418;13.668;2024-01-16T11:23:25;7.47;;;4.53;;
12171;SDS011;6149;52.418;13.668;2024-01-16T11:25:52;6.60;;;4.37;;
12171;SDS011;6149;52.418;13.668;2024-01-16T11:28:19;8.77;;;4.30;;
12171;SDS011;6149;52.418;13.668;2024-01-16T11:30:46;9.83;;;4.40;;
12171;SDS011;6149;52.418;13.668;2024-01-16T11:39:16;9.37;;;4.40;;
12171;SDS011;6149;52.418;13.668;2024-01-16T11:41:48;6.47;;;3.97;;
12171;SDS011;6149;52.418;13.668;2024-01-16T11:47:06;5.70;;;3.50;;
12171;SDS011;6149;52.418;13.668;2024-01-16T11:49:35;5.27;;;3.57;;
12171;SDS011;6149;52.418;13.668;2024-01-16T11:52:02;5.87;;;3.57;;
12171;SDS011;6149;52.418;13.668;2024-01-16T11:54:29;8.03;;;3.40;;
12171;SDS011;6149;52.418;13.668;2024-01-16T12:00:03;8.37;;;3.43;;
12171;SDS011;6149;52.418;13.668;2024-01-16T12:02:49;9.70;;;4.30;;
12171;SDS011;6149;52.418;13.668;2024-01-16T12:05:20;6.80;;;3.50;;
12171;SDS011;6149;52.418;13.668;2024-01-16T12:07:47;7.07;;;3.33;;
12171;SDS011;6149;52.418;13.668;2024-01-16T12:10:15;7.20;;;3.37;;
12171;SDS011;6149;52.418;13.668;2024-01-16T12:12:43;7.73;;;3.80;;
12171;SDS011;6149;52.418;13.668;2024-01-16T12:15:17;7.60;;;3.30;;
12171;SDS011;6149;52.418;13.668;2024-01-16T12:17:51;7.23;;;3.70;;
12171;SDS011;6149;52.418;13.668;2024-01-16T12:20:21;8.20;;;3.90;;
12171;SDS011;6149;52.418;13.668;2024-01-16T12:22:53;6.30;;;3.63;;
12171;SDS011;6149;52.418;13.668;2024-01-16T12:25:21;7.33;;;3.53;;
12171;SDS011;6149;52.418;13.668;2024-01-16T12:27:53;10.63;;;4.33;;
12171;SDS011;6149;52.418;13.668;2024-01-16T12:30:24;8.83;;;4.20;;
12171;SDS011;6149;52.418;13.668;2024-01-16T12:33:02;8.83;;;4.07;;
12171;SDS011;6149;52.418;13.668;2024-01-16T12:35:32;10.87;;;4.50;;
12171;SDS011;6149;52.418;13.668;2024-01-16T12:38:00;6.27;;;3.97;;
12171;SDS011;6149;52.418;13.668;2024-01-16T12:40:28;9.87;;;4.60;;
12171;SDS011;6149;52.418;13.668;2024-01-16T12:42:55;9.17;;;3.93;;
12171;SDS011;6149;52.418;13.668;2024-01-16T12:45:21;10.67;;;4.63;;
12171;SDS011;6149;52.418;13.668;2024-01-16T12:47:50;9.33;;;4.80;;
12171;SDS011;6149;52.418;13.668;2024-01-16T12:50:21;10.63;;;4.27;;
12171;SDS011;6149;52.418;13.668;2024-01-16T12:52:50;12.83;;;4.93;;
12171;SDS011;6149;52.418;13.668;2024-01-16T12:55:27;7.27;;;4.30;;
12171;SDS011;6149;52.418;13.668;2024-01-16T13:00:45;8.00;;;4.53;;
12171;SDS011;6149;52.418;13.668;2024-01-16T13:03:16;9.13;;;4.63;;
12171;SDS011;6149;52.418;13.668;2024-01-16T13:05:45;6.40;;;4.20;;
12171;SDS011;6149;52.418;13.668;2024-01-16T13:08:21;8.17;;;4.63;;
12171;SDS011;6149;52.418;13.668;2024-01-16T13:11:01;10.43;;;4.43;;
12171;SDS011;6149;52.418;13.668;2024-01-16T13:13:29;9.40;;;4.30;;
12171;SDS011;6149;52.418;13.668;2024-01-16T13:15:56;8.90;;;4.60;;
12171;SDS011;6149;52.418;13.668;2024-01-16T13:18:24;9.93;;;4.37;;
12171;SDS011;6149;52.418;13.668;2024-01-16T13:20:53;8.90;;;4.20;;
12171;SDS011;6149;52.418;13.668;2024-01-16T13:23:22;9.57;;;4.67;;
12171;SDS011;6149;52.418;13.668;2024-01-16T13:25:50;9.90;;;4.60;;
12171;SDS011;6149;52.418;13.668;2024-01-16T13:28:19;12.23;;;4.40;;
12171;SDS011;6149;52.418;13.668;2024-01-16T13:30:46;6.97;;;3.63;;
12171;SDS011;6149;52.418;13.668;2024-01-16T13:33:15;10.27;;;4.37;;
12171;SDS011;6149;52.418;13.668;2024-01-16T13:35:42;8.43;;;4.80;;
12171;SDS011;6149;52.418;13.668;2024-01-16T13:38:35;12.60;;;4.50;;
12171;SDS011;6149;52.418;13.668;2024-01-16T13:41:01;9.97;;;4.30;;
12171;SDS011;6149;52.418;13.668;2024-01-16T13:43:28;11.27;;;4.23;;
12171;SDS011;6149;52.418;13.668;2024-01-16T13:45:55;10.00;;;4.30;;
12171;SDS011;6149;52.418;13.668;2024-01-16T13:48:21;10.37;;;4.50;;
12171;SDS011;6149;52.418;13.668;2024-01-16T13:50:48;10.70;;;4.03;;
12171;SDS011;6149;52.418;13.668;2024-01-16T13:53:15;9.07;;;3.63;;
12171;SDS011;6149;52.418;13.668;2024-01-16T13:55:43;9.37;;;4.07;;
12171;SDS011;6149;52.418;13.668;2024-01-16T13:58:09;7.93;;;3.60;;
12171;SDS011;6149;52.418;13.668;2024-01-16T14:00:36;9.40;;;4.00;;
12171;SDS011;6149;52.418;13.668;2024-01-16T14:03:03;8.30;;;4.13;;
12171;SDS011;6149;52.418;13.668;2024-01-16T14:05:31;8.37;;;3.50;;
12171;SDS011;6149;52.418;13.668;2024-01-16T14:07:58;7.00;;;3.40;;
12171;SDS011;6149;52.418;13.668;2024-01-16T14:10:25;7.80;;;2.97;;
12171;SDS011;6149;52.418;13.668;2024-01-16T14:12:53;8.03;;;3.20;;
12171;SDS011;6149;52.418;13.668;2024-01-16T14:15:21;6.43;;;3.17;;
12171;SDS011;6149;52.418;13.668;2024-01-16T14:17:49;11.33;;;3.20;;
12171;SDS011;6149;52.418;13.668;2024-01-16T14:20:18;9.67;;;3.43;;
12171;SDS011;6149;52.418;13.668;2024-01-16T14:22:49;8.63;;;3.10;;
12171;SDS011;6149;52.418;13.668;2024-01-16T14:25:16;7.90;;;2.90;;
12171;SDS011;6149;52.418;13.668;2024-01-16T14:27:45;11.37;;;3.10;;
12171;SDS011;6149;52.418;13.668;2024-01-16T14:30:16;7.37;;;2.80;;
12171;SDS011;6149;52.418;13.668;2024-01-16T14:32:44;7.73;;;2.70;;
12171;SDS011;6149;52.418;13.668;2024-01-16T14:35:11;7.40;;;3.07;;
12171;SDS011;6149;52.418;13.668;2024-01-16T14:37:39;6.67;;;2.80;;
12171;SDS011;6149;52.418;13.668;2024-01-16T14:40:06;6.73;;;2.97;;
12171;SDS011;6149;52.418;13.668;2024-01-16T14:42:37;7.80;;;3.43;;
12171;SDS011;6149;52.418;13.668;2024-01-16T14:45:05;6.83;;;3.17;;
12171;SDS011;6149;52.418;13.668;2024-01-16T14:47:34;5.87;;;2.80;;
12171;SDS011;6149;52.418;13.668;2024-01-16T14:50:01;9.77;;;3.20;;
12171;SDS011;6149;52.418;13.668;2024-01-16T14:52:28;5.27;;;3.20;;
12171;SDS011;6149;52.418;13.668;2024-01-16T14:54:58;10.03;;;3.50;;
12171;SDS011;6149;52.418;13.668;2024-01-16T14:57:24;10.83;;;4.10;;
12171;SDS011;6149;52.418;13.668;2024-01-16T14:59:52;11.17;;;4.37;;